sensor_id;sensor_type;location;lat;lon;timestamp;pressure;altitude;pressure_sealevel;temperature;humidity
7802;BME280;3945;48.952;9.506;2023-04-04T00:00:09;98789.25;;;0.84;64.42
7802;BME280;3945;48.952;9.506;2023-04-04T00:02:36;98788.44;;;0.83;65.33
7802;BME280;3945;48.952;9.506;2023-04-04T00:05:03;98788.28;;;0.85;65.46
7802;BME280;3945;48.952;9.506;2023-04-04T00:07:29;98786.94;;;0.81;64.81
7802;BME280;3945;48.952;9.506;2023-04-04T00:09:57;98783.34;;;0.82;65.14
7802;BME280;3945;48.952;9.506;2023-04-04T00:12:23;98785.31;;;0.79;65.33
7802;BME280;3945;48.952;9.506;2023-04-04T00:14:50;98780.25;;;0.78;65.16
7802;BME280;3945;48.952;9.506;2023-04-04T00:17:16;98782.69;;;0.79;65.87
7802;BME280;3945;48.952;9.506;2023-04-04T00:19:43;98775.97;;;0.77;65.85
7802;BME280;3945;48.952;9.506;2023-04-04T00:22:10;98778.59;;;0.77;65.85
7802;BME280;3945;48.952;9.506;2023-04-04T00:24:37;98775.16;;;0.76;66.47
7802;BME280;3945;48.952;9.506;2023-04-04T00:27:05;98773.22;;;0.78;65.81
7802;BME280;3945;48.952;9.506;2023-04-04T00:29:31;98764.53;;;0.78;65.92
7802;BME280;3945;48.952;9.506;2023-04-04T00:31:58;98768.63;;;0.81;66.01
7802;BME280;3945;48.952;9.506;2023-04-04T00:34:24;98771.22;;;0.81;66.12
7802;BME280;3945;48.952;9.506;2023-04-04T00:36:51;98762.53;;;0.80;66.33
7802;BME280;3945;48.952;9.506;2023-04-04T00:39:18;98757.78;;;0.75;66.13
7802;BME280;3945;48.952;9.506;2023-04-04T00:41:46;98760.72;;;0.72;66.86
7802;BME280;3945;48.952;9.506;2023-04-04T00:44:14;98759.09;;;0.71;66.71
7802;BME280;3945;48.952;9.506;2023-04-04T00:46:41;98752.38;;;0.69;67.40
7802;BME280;3945;48.952;9.506;2023-04-04T00:49:07;98756.63;;;0.70;67.38
7802;BME280;3945;48.952;9.506;2023-04-04T00:51:33;98752.38;;;0.69;67.00
7802;BME280;3945;48.952;9.506;2023-04-04T00:54:00;98748.63;;;0.71;66.65
7802;BME280;3945;48.952;9.506;2023-04-04T00:56:27;98745.63;;;0.66;66.64
7802;BME280;3945;48.952;9.506;2023-04-04T00:58:53;98746.63;;;0.65;66.48
7802;BME280;3945;48.952;9.506;2023-04-04T01:01:22;98739.91;;;0.63;66.86
7802;BME280;3945;48.952;9.506;2023-04-04T01:03:49;98738.28;;;0.62;67.01
7802;BME280;3945;48.952;9.506;2023-04-04T01:06:16;98740.53;;;0.57;66.95
7802;BME280;3945;48.952;9.506;2023-04-04T01:08:43;98733.66;;;0.56;66.87
7802;BME280;3945;48.952;9.506;2023-04-04T01:11:10;98739.06;;;0.54;67.21
7802;BME280;3945;48.952;9.506;2023-04-04T01:13:36;98740.19;;;0.52;67.14
7802;BME280;3945;48.952;9.506;2023-04-04T01:16:03;98739.34;;;0.51;67.21
7802;BME280;3945;48.952;9.506;2023-04-04T01:18:30;98742.16;;;0.50;66.80
7802;BME280;3945;48.952;9.506;2023-04-04T01:20:59;98744.91;;;0.48;66.78
7802;BME280;3945;48.952;9.506;2023-04-04T01:23:29;98744.41;;;0.45;67.28
7802;BME280;3945;48.952;9.506;2023-04-04T01:26:02;98735.91;;;0.43;67.22
7802;BME280;3945;48.952;9.506;2023-04-04T01:28:29;98736.88;;;0.42;67.39
7802;BME280;3945;48.952;9.506;2023-04-04T01:30:56;98735.09;;;0.42;67.50
7802;BME280;3945;48.952;9.506;2023-04-04T01:33:24;98736.53;;;0.45;67.53
7802;BME280;3945;48.952;9.506;2023-04-04T01:35:56;98742.25;;;0.40;67.52
7802;BME280;3945;48.952;9.506;2023-04-04T01:38:28;98738.31;;;0.36;67.75
7802;BME280;3945;48.952;9.506;2023-04-04T01:40:57;98737.50;;;0.35;68.41
7802;BME280;3945;48.952;9.506;2023-04-04T01:43:27;98738.31;;;0.36;68.24
7802;BME280;3945;48.952;9.506;2023-04-04T01:45:55;98740.28;;;0.34;67.93
7802;BME280;3945;48.952;9.506;2023-04-04T01:48:23;98732.88;;;0.29;67.77
7802;BME280;3945;48.952;9.506;2023-04-04T01:50:49;98729.22;;;0.22;67.56
7802;BME280;3945;48.952;9.506;2023-04-04T01:53:19;98738.88;;;0.22;67.70
7802;BME280;3945;48.952;9.506;2023-04-04T01:55:46;98733.00;;;0.20;67.55
7802;BME280;3945;48.952;9.506;2023-04-04T01:58:12;98734.63;;;0.21;67.47
7802;BME280;3945;48.952;9.506;2023-04-04T02:00:40;98729.03;;;0.16;67.50
7802;BME280;3945;48.952;9.506;2023-04-04T02:03:06;98735.09;;;0.16;67.59
7802;BME280;3945;48.952;9.506;2023-04-04T02:05:33;98728.00;;;0.09;68.05
7802;BME280;3945;48.952;9.506;2023-04-04T02:07:59;98733.25;;;0.09;67.99
7802;BME280;3945;48.952;9.506;2023-04-04T02:10:27;98723.09;;;0.06;68.29
7802;BME280;3945;48.952;9.506;2023-04-04T02:12:53;98732.88;;;0.04;68.38
7802;BME280;3945;48.952;9.506;2023-04-04T02:15:20;98724.38;;;0.02;68.66
7802;BME280;3945;48.952;9.506;2023-04-04T02:17:48;98722.91;;;-0.01;68.56
7802;BME280;3945;48.952;9.506;2023-04-04T02:20:15;98729.41;;;-0.05;69.19
7802;BME280;3945;48.952;9.506;2023-04-04T02:22:42;98732.63;;;-0.11;69.49
7802;BME280;3945;48.952;9.506;2023-04-04T02:25:15;98731.66;;;-0.10;69.23
7802;BME280;3945;48.952;9.506;2023-04-04T02:27:41;98730.84;;;-0.11;69.22
7802;BME280;3945;48.952;9.506;2023-04-04T02:30:08;98726.56;;;-0.12;69.64
7802;BME280;3945;48.952;9.506;2023-04-04T02:32:34;98726.72;;;-0.13;69.67
7802;BME280;3945;48.952;9.506;2023-04-04T02:35:03;98732.13;;;-0.15;69.83
7802;BME280;3945;48.952;9.506;2023-04-04T02:37:30;98727.19;;;-0.18;69.96
7802;BME280;3945;48.952;9.506;2023-04-04T02:39:56;98730.63;;;-0.17;69.76
7802;BME280;3945;48.952;9.506;2023-04-04T02:42:22;98728.84;;;-0.17;69.60
7802;BME280;3945;48.952;9.506;2023-04-04T02:44:49;98722.13;;;-0.19;69.55
7802;BME280;3945;48.952;9.506;2023-04-04T02:47:15;98722.13;;;-0.19;69.58
7802;BME280;3945;48.952;9.506;2023-04-04T02:49:41;98728.31;;;-0.20;69.56
7802;BME280;3945;48.952;9.506;2023-04-04T02:52:09;98722.25;;;-0.21;69.70
7802;BME280;3945;48.952;9.506;2023-04-04T02:54:36;98722.44;;;-0.22;69.61
7802;BME280;3945;48.952;9.506;2023-04-04T02:57:02;98718.66;;;-0.20;69.70
7802;BME280;3945;48.952;9.506;2023-04-04T02:59:29;98721.00;;;-0.17;69.95
7802;BME280;3945;48.952;9.506;2023-04-04T03:01:55;98716.88;;;-0.19;69.97
7802;BME280;3945;48.952;9.506;2023-04-04T03:04:21;98724.22;;;-0.23;70.12
7802;BME280;3945;48.952;9.506;2023-04-04T03:06:48;98719.16;;;-0.24;70.17
7802;BME280;3945;48.952;9.506;2023-04-04T03:09:16;98724.22;;;-0.23;70.00
7802;BME280;3945;48.952;9.506;2023-04-04T03:11:42;98720.94;;;-0.25;69.85
7802;BME280;3945;48.952;9.506;2023-04-04T03:14:09;98728.78;;;-0.25;70.18
7802;BME280;3945;48.952;9.506;2023-04-04T03:16:35;98718.63;;;-0.28;69.98
7802;BME280;3945;48.952;9.506;2023-04-04T03:19:02;98716.16;;;-0.29;70.08
7802;BME280;3945;48.952;9.506;2023-04-04T03:21:28;98720.88;;;-0.33;70.29
7802;BME280;3945;48.952;9.506;2023-04-04T03:23:55;98718.41;;;-0.34;70.45
7802;BME280;3945;48.952;9.506;2023-04-04T03:26:23;98704.38;;;-0.33;70.54
7802;BME280;3945;48.952;9.506;2023-04-04T03:28:52;98713.16;;;-0.34;70.26
7802;BME280;3945;48.952;9.506;2023-04-04T03:31:18;98710.72;;;-0.36;70.83
7802;BME280;3945;48.952;9.506;2023-04-04T03:33:45;98708.91;;;-0.35;70.73
7802;BME280;3945;48.952;9.506;2023-04-04T03:36:12;98704.69;;;-0.36;70.72
7802;BME280;3945;48.952;9.506;2023-04-04T03:38:38;98715.28;;;-0.38;70.75
7802;BME280;3945;48.952;9.506;2023-04-04T03:41:05;98711.19;;;-0.41;71.19
7802;BME280;3945;48.952;9.506;2023-04-04T03:43:33;98717.22;;;-0.40;70.70
7802;BME280;3945;48.952;9.506;2023-04-04T03:45:59;98711.78;;;-0.47;70.92
7802;BME280;3945;48.952;9.506;2023-04-04T03:48:26;98710.81;;;-0.46;70.75
7802;BME280;3945;48.952;9.506;2023-04-04T03:50:53;98719.78;;;-0.48;71.01
7802;BME280;3945;48.952;9.506;2023-04-04T03:53:19;98713.56;;;-0.47;70.86
7802;BME280;3945;48.952;9.506;2023-04-04T03:55:46;98720.59;;;-0.48;70.78
7802;BME280;3945;48.952;9.506;2023-04-04T03:58:12;98721.69;;;-0.50;71.27
7802;BME280;3945;48.952;9.506;2023-04-04T04:00:40;98715.69;;;-0.51;70.74
7802;BME280;3945;48.952;9.506;2023-04-04T04:03:06;98718.44;;;-0.52;70.88
7802;BME280;3945;48.952;9.506;2023-04-04T04:05:32;98722.03;;;-0.53;71.30
7802;BME280;3945;48.952;9.506;2023-04-04T04:07:59;98712.19;;;-0.59;71.05
7802;BME280;3945;48.952;9.506;2023-04-04T04:10:25;98718.88;;;-0.57;70.92
7802;BME280;3945;48.952;9.506;2023-04-04T04:12:52;98716.44;;;-0.58;71.01
7802;BME280;3945;48.952;9.506;2023-04-04T04:15:18;98716.59;;;-0.60;70.93
7802;BME280;3945;48.952;9.506;2023-04-04T04:17:46;98720.31;;;-0.62;70.71
7802;BME280;3945;48.952;9.506;2023-04-04T04:20:12;98717.00;;;-0.64;71.20
7802;BME280;3945;48.952;9.506;2023-04-04T04:22:38;98714.41;;;-0.64;71.08
7802;BME280;3945;48.952;9.506;2023-04-04T04:25:10;98720.44;;;-0.64;70.98
7802;BME280;3945;48.952;9.506;2023-04-04T04:27:36;98723.25;;;-0.65;71.16
7802;BME280;3945;48.952;9.506;2023-04-04T04:30:03;98720.78;;;-0.67;71.42
7802;BME280;3945;48.952;9.506;2023-04-04T04:32:29;98719.25;;;-0.69;71.08
7802;BME280;3945;48.952;9.506;2023-04-04T04:34:57;98722.34;;;-0.74;71.58
7802;BME280;3945;48.952;9.506;2023-04-04T04:37:23;98711.22;;;-0.76;71.30
7802;BME280;3945;48.952;9.506;2023-04-04T04:39:50;98717.41;;;-0.77;71.37
7802;BME280;3945;48.952;9.506;2023-04-04T04:42:17;98719.19;;;-0.77;71.27
7802;BME280;3945;48.952;9.506;2023-04-04T04:44:43;98719.19;;;-0.77;71.35
7802;BME280;3945;48.952;9.506;2023-04-04T04:47:10;98724.56;;;-0.79;71.28
7802;BME280;3945;48.952;9.506;2023-04-04T04:49:36;98715.25;;;-0.82;71.50
7802;BME280;3945;48.952;9.506;2023-04-04T04:52:04;98723.09;;;-0.82;71.33
7802;BME280;3945;48.952;9.506;2023-04-04T04:54:30;98726.81;;;-0.84;72.01
7802;BME280;3945;48.952;9.506;2023-04-04T04:56:57;98720.75;;;-0.85;71.87
7802;BME280;3945;48.952;9.506;2023-04-04T04:59:24;98716.50;;;-0.86;71.47
7802;BME280;3945;48.952;9.506;2023-04-04T05:01:51;98716.34;;;-0.84;71.53
7802;BME280;3945;48.952;9.506;2023-04-04T05:04:17;98721.56;;;-0.84;71.39
7802;BME280;3945;48.952;9.506;2023-04-04T05:06:43;98728.72;;;-0.86;71.31
7802;BME280;3945;48.952;9.506;2023-04-04T05:09:11;98721.06;;;-0.88;71.47
7802;BME280;3945;48.952;9.506;2023-04-04T05:11:38;98723.50;;;-0.86;71.57
7802;BME280;3945;48.952;9.506;2023-04-04T05:14:05;98724.50;;;-0.87;71.30
7802;BME280;3945;48.952;9.506;2023-04-04T05:16:31;98726.13;;;-0.86;70.94
7802;BME280;3945;48.952;9.506;2023-04-04T05:18:58;98725.47;;;-0.88;70.99
7802;BME280;3945;48.952;9.506;2023-04-04T05:21:24;98730.69;;;-0.88;71.11
7802;BME280;3945;48.952;9.506;2023-04-04T05:23:51;98728.38;;;-0.91;71.15
7802;BME280;3945;48.952;9.506;2023-04-04T05:26:18;98726.88;;;-0.94;71.30
7802;BME280;3945;48.952;9.506;2023-04-04T05:28:45;98726.72;;;-0.92;71.24
7802;BME280;3945;48.952;9.506;2023-04-04T05:31:11;98727.03;;;-0.95;71.67
7802;BME280;3945;48.952;9.506;2023-04-04T05:33:37;98728.50;;;-0.93;71.27
7802;BME280;3945;48.952;9.506;2023-04-04T05:36:04;98730.16;;;-0.92;71.24
7802;BME280;3945;48.952;9.506;2023-04-04T05:38:30;98729.31;;;-0.92;71.22
7802;BME280;3945;48.952;9.506;2023-04-04T05:40:57;98729.66;;;-0.95;71.46
7802;BME280;3945;48.952;9.506;2023-04-04T05:43:24;98732.63;;;-0.90;71.08
7802;BME280;3945;48.952;9.506;2023-04-04T05:45:51;98734.13;;;-0.88;70.91
7802;BME280;3945;48.952;9.506;2023-04-04T05:48:17;98733.59;;;-0.91;71.05
7802;BME280;3945;48.952;9.506;2023-04-04T05:50:43;98732.63;;;-0.90;71.40
7802;BME280;3945;48.952;9.506;2023-04-04T05:53:11;98734.94;;;-0.87;70.61
7802;BME280;3945;48.952;9.506;2023-04-04T05:55:37;98736.75;;;-0.88;70.96
7802;BME280;3945;48.952;9.506;2023-04-04T05:58:03;98740.19;;;-0.87;70.66
7802;BME280;3945;48.952;9.506;2023-04-04T06:00:31;98736.88;;;-0.89;70.71
7802;BME280;3945;48.952;9.506;2023-04-04T06:02:57;98744.25;;;-0.85;70.73
7802;BME280;3945;48.952;9.506;2023-04-04T06:05:24;98744.13;;;-0.83;70.58
7802;BME280;3945;48.952;9.506;2023-04-04T06:07:50;98746.59;;;-0.82;71.27
7802;BME280;3945;48.952;9.506;2023-04-04T06:10:16;98742.41;;;-0.74;70.76
7802;BME280;3945;48.952;9.506;2023-04-04T06:12:42;98743.53;;;-0.59;70.52
7802;BME280;3945;48.952;9.506;2023-04-04T06:15:09;98741.56;;;-0.40;69.50
7802;BME280;3945;48.952;9.506;2023-04-04T06:17:37;98742.06;;;-0.18;69.05
7802;BME280;3945;48.952;9.506;2023-04-04T06:20:05;98738.19;;;0.12;68.25
7802;BME280;3945;48.952;9.506;2023-04-04T06:22:32;98743.38;;;0.37;67.34
7802;BME280;3945;48.952;9.506;2023-04-04T06:24:58;98741.06;;;0.68;65.65
7802;BME280;3945;48.952;9.506;2023-04-04T06:27:25;98736.59;;;1.03;66.66
7802;BME280;3945;48.952;9.506;2023-04-04T06:29:52;98735.34;;;1.39;63.91
7802;BME280;3945;48.952;9.506;2023-04-04T06:32:18;98731.25;;;1.77;63.21
7802;BME280;3945;48.952;9.506;2023-04-04T06:34:47;98734.66;;;2.18;61.85
7802;BME280;3945;48.952;9.506;2023-04-04T06:37:13;98738.03;;;2.51;59.74
7802;BME280;3945;48.952;9.506;2023-04-04T06:39:39;98732.44;;;2.85;59.41
7802;BME280;3945;48.952;9.506;2023-04-04T06:42:06;98732.97;;;3.11;58.93
7802;BME280;3945;48.952;9.506;2023-04-04T06:44:32;98730.72;;;3.31;57.25
7802;BME280;3945;48.952;9.506;2023-04-04T06:46:58;98736.28;;;3.59;56.02
7802;BME280;3945;48.952;9.506;2023-04-04T06:49:25;98731.28;;;3.87;54.61
7802;BME280;3945;48.952;9.506;2023-04-04T06:51:52;98735.13;;;4.14;53.95
7802;BME280;3945;48.952;9.506;2023-04-04T06:54:19;98731.25;;;4.24;52.76
7802;BME280;3945;48.952;9.506;2023-04-04T06:56:45;98730.06;;;4.56;53.72
7802;BME280;3945;48.952;9.506;2023-04-04T06:59:12;98726.56;;;4.85;51.98
7802;BME280;3945;48.952;9.506;2023-04-04T07:01:38;98724.56;;;5.02;51.04
7802;BME280;3945;48.952;9.506;2023-04-04T07:04:04;98722.00;;;5.30;51.23
7802;BME280;3945;48.952;9.506;2023-04-04T07:06:30;98724.91;;;5.56;51.54
7802;BME280;3945;48.952;9.506;2023-04-04T07:08:58;98724.16;;;5.83;49.43
7802;BME280;3945;48.952;9.506;2023-04-04T07:11:24;98725.16;;;6.04;48.74
7802;BME280;3945;48.952;9.506;2023-04-04T07:13:51;98719.44;;;6.35;48.76
7802;BME280;3945;48.952;9.506;2023-04-04T07:16:17;98725.31;;;6.64;48.73
7802;BME280;3945;48.952;9.506;2023-04-04T07:18:43;98723.84;;;6.96;47.88
7802;BME280;3945;48.952;9.506;2023-04-04T07:21:10;98732.19;;;7.00;46.19
7802;BME280;3945;48.952;9.506;2023-04-04T07:23:37;98735.53;;;7.28;45.97
7802;BME280;3945;48.952;9.506;2023-04-04T07:26:05;98730.31;;;7.55;47.79
7802;BME280;3945;48.952;9.506;2023-04-04T07:28:31;98735.25;;;7.84;45.04
7802;BME280;3945;48.952;9.506;2023-04-04T07:30:58;98731.78;;;8.03;44.03
7802;BME280;3945;48.952;9.506;2023-04-04T07:33:24;98737.28;;;8.28;43.86
7802;BME280;3945;48.952;9.506;2023-04-04T07:35:51;98733.38;;;8.64;44.13
7802;BME280;3945;48.952;9.506;2023-04-04T07:38:18;98718.88;;;8.59;42.50
7802;BME280;3945;48.952;9.506;2023-04-04T07:40:44;98732.75;;;8.55;43.14
7802;BME280;3945;48.952;9.506;2023-04-04T07:43:12;98731.13;;;8.54;42.89
7802;BME280;3945;48.952;9.506;2023-04-04T07:45:38;98733.13;;;8.78;42.00
7802;BME280;3945;48.952;9.506;2023-04-04T07:48:05;98723.81;;;9.07;43.58
7802;BME280;3945;48.952;9.506;2023-04-04T07:50:31;98715.97;;;9.25;41.60
7802;BME280;3945;48.952;9.506;2023-04-04T07:52:57;98722.38;;;9.49;42.44
7802;BME280;3945;48.952;9.506;2023-04-04T07:55:24;98730.53;;;9.48;38.87
7802;BME280;3945;48.952;9.506;2023-04-04T07:57:50;98727.75;;;8.91;39.43
7802;BME280;3945;48.952;9.506;2023-04-04T08:00:19;98728.91;;;8.44;40.14
7802;BME280;3945;48.952;9.506;2023-04-04T08:02:50;98722.78;;;8.57;44.12
7802;BME280;3945;48.952;9.506;2023-04-04T08:05:16;98725.91;;;8.92;40.97
7802;BME280;3945;48.952;9.506;2023-04-04T08:07:43;98718.75;;;8.99;41.52
7802;BME280;3945;48.952;9.506;2023-04-04T08:10:09;98722.25;;;8.93;39.45
7802;BME280;3945;48.952;9.506;2023-04-04T08:12:36;98723.81;;;9.07;40.95
7802;BME280;3945;48.952;9.506;2023-04-04T08:15:03;98723.63;;;9.02;40.39
7802;BME280;3945;48.952;9.506;2023-04-04T08:17:31;98719.38;;;8.88;40.66
7802;BME280;3945;48.952;9.506;2023-04-04T08:19:57;98722.66;;;8.90;41.79
7802;BME280;3945;48.952;9.506;2023-04-04T08:22:24;98715.41;;;9.10;40.78
7802;BME280;3945;48.952;9.506;2023-04-04T08:24:51;98712.63;;;8.98;37.76
7802;BME280;3945;48.952;9.506;2023-04-04T08:27:17;98716.84;;;9.13;40.41
7802;BME280;3945;48.952;9.506;2023-04-04T08:29:43;98713.97;;;9.14;39.87
7802;BME280;3945;48.952;9.506;2023-04-04T08:32:10;98710.22;;;9.28;39.49
7802;BME280;3945;48.952;9.506;2023-04-04T08:34:38;98711.13;;;9.09;39.01
7802;BME280;3945;48.952;9.506;2023-04-04T08:37:05;98713.59;;;9.04;39.24
7802;BME280;3945;48.952;9.506;2023-04-04T08:39:32;98702.03;;;9.30;39.79
7802;BME280;3945;48.952;9.506;2023-04-04T08:42:01;98704.28;;;9.64;39.39
7802;BME280;3945;48.952;9.506;2023-04-04T08:44:29;98705.00;;;9.78;38.28
7802;BME280;3945;48.952;9.506;2023-04-04T08:46:55;98705.09;;;9.65;37.26
7802;BME280;3945;48.952;9.506;2023-04-04T08:49:24;98708.41;;;9.85;37.99
7802;BME280;3945;48.952;9.506;2023-04-04T08:51:52;98702.50;;;10.08;37.80
7802;BME280;3945;48.952;9.506;2023-04-04T08:54:21;98707.44;;;9.79;37.28
7802;BME280;3945;48.952;9.506;2023-04-04T08:56:48;98709.28;;;9.79;39.66
7802;BME280;3945;48.952;9.506;2023-04-04T08:59:14;98696.56;;;10.06;38.28
7802;BME280;3945;48.952;9.506;2023-04-04T09:01:42;98705.31;;;10.13;38.01
7802;BME280;3945;48.952;9.506;2023-04-04T09:04:09;98699.53;;;10.23;38.24
7802;BME280;3945;48.952;9.506;2023-04-04T09:06:35;98703.44;;;10.20;36.00
7802;BME280;3945;48.952;9.506;2023-04-04T09:09:03;98709.47;;;10.02;37.99
7802;BME280;3945;48.952;9.506;2023-04-04T09:11:30;98707.81;;;10.08;38.77
7802;BME280;3945;48.952;9.506;2023-04-04T09:13:57;98695.47;;;10.20;37.31
7802;BME280;3945;48.952;9.506;2023-04-04T09:16:24;98697.03;;;10.28;37.38
7802;BME280;3945;48.952;9.506;2023-04-04T09:18:51;98696.72;;;10.11;37.54
7802;BME280;3945;48.952;9.506;2023-04-04T09:21:18;98698.41;;;9.80;37.17
7802;BME280;3945;48.952;9.506;2023-04-04T09:23:44;98704.53;;;9.81;37.99
7802;BME280;3945;48.952;9.506;2023-04-04T09:26:12;98702.66;;;9.88;40.64
7802;BME280;3945;48.952;9.506;2023-04-04T09:28:38;98701.50;;;10.02;38.46
7802;BME280;3945;48.952;9.506;2023-04-04T09:31:06;98703.25;;;9.90;37.20
7802;BME280;3945;48.952;9.506;2023-04-04T09:33:34;98705.16;;;9.83;37.92
7802;BME280;3945;48.952;9.506;2023-04-04T09:36:01;98700.94;;;10.00;37.30
7802;BME280;3945;48.952;9.506;2023-04-04T09:38:27;98695.75;;;10.05;38.73
7802;BME280;3945;48.952;9.506;2023-04-04T09:40:54;98705.66;;;9.98;36.45
7802;BME280;3945;48.952;9.506;2023-04-04T09:43:22;98704.41;;;10.01;35.71
7802;BME280;3945;48.952;9.506;2023-04-04T09:45:49;98697.06;;;9.96;37.10
7802;BME280;3945;48.952;9.506;2023-04-04T09:48:23;98698.94;;;10.21;37.94
7802;BME280;3945;48.952;9.506;2023-04-04T09:50:51;98693.56;;;10.64;38.48
7802;BME280;3945;48.952;9.506;2023-04-04T09:53:17;98691.25;;;10.67;36.41
7802;BME280;3945;48.952;9.506;2023-04-04T09:55:48;98702.81;;;10.79;37.59
7802;BME280;3945;48.952;9.506;2023-04-04T09:58:15;98698.38;;;10.91;35.70
7802;BME280;3945;48.952;9.506;2023-04-04T10:00:45;98691.09;;;10.99;37.07
7802;BME280;3945;48.952;9.506;2023-04-04T10:03:12;98700.41;;;11.08;35.23
7802;BME280;3945;48.952;9.506;2023-04-04T10:05:39;98702.06;;;10.90;35.79
7802;BME280;3945;48.952;9.506;2023-04-04T10:08:12;98700.38;;;10.78;35.52
7802;BME280;3945;48.952;9.506;2023-04-04T10:10:44;98701.34;;;10.65;35.75
7802;BME280;3945;48.952;9.506;2023-04-04T10:13:10;98702.34;;;10.82;37.51
7802;BME280;3945;48.952;9.506;2023-04-04T10:15:37;98704.44;;;10.80;35.08
7802;BME280;3945;48.952;9.506;2023-04-04T10:18:05;98699.13;;;10.80;35.08
7802;BME280;3945;48.952;9.506;2023-04-04T10:20:33;98699.13;;;10.80;35.99
7802;BME280;3945;48.952;9.506;2023-04-04T10:23:00;98693.41;;;10.77;36.49
7802;BME280;3945;48.952;9.506;2023-04-04T10:25:27;98696.72;;;10.90;35.94
7802;BME280;3945;48.952;9.506;2023-04-04T10:27:54;98691.31;;;10.97;36.73
7802;BME280;3945;48.952;9.506;2023-04-04T10:30:21;98700.84;;;11.05;35.27
7802;BME280;3945;48.952;9.506;2023-04-04T10:32:49;98688.25;;;11.30;35.04
7802;BME280;3945;48.952;9.506;2023-04-04T10:35:19;98678.22;;;11.55;33.49
7802;BME280;3945;48.952;9.506;2023-04-04T10:37:48;98682.53;;;11.68;33.35
7802;BME280;3945;48.952;9.506;2023-04-04T10:40:17;98676.81;;;11.94;34.73
7802;BME280;3945;48.952;9.506;2023-04-04T10:42:45;98675.19;;;12.05;34.33
7802;BME280;3945;48.952;9.506;2023-04-04T10:45:12;98669.53;;;12.01;34.73
7802;BME280;3945;48.952;9.506;2023-04-04T10:47:39;98666.09;;;11.71;33.22
7802;BME280;3945;48.952;9.506;2023-04-04T10:50:06;98664.56;;;11.52;34.18
7802;BME280;3945;48.952;9.506;2023-04-04T10:52:36;98665.13;;;11.54;35.36
7802;BME280;3945;48.952;9.506;2023-04-04T10:55:04;98672.13;;;11.66;34.73
7802;BME280;3945;48.952;9.506;2023-04-04T10:57:31;98664.00;;;11.73;34.28
7802;BME280;3945;48.952;9.506;2023-04-04T10:59:59;98668.91;;;11.76;34.62
7802;BME280;3945;48.952;9.506;2023-04-04T11:02:42;98673.69;;;11.86;34.74
7802;BME280;3945;48.952;9.506;2023-04-04T11:05:09;98669.25;;;11.80;37.55
7802;BME280;3945;48.952;9.506;2023-04-04T11:07:36;98652.00;;;11.94;36.00
7802;BME280;3945;48.952;9.506;2023-04-04T11:10:06;98662.09;;;12.15;35.64
7802;BME280;3945;48.952;9.506;2023-04-04T11:12:40;98653.28;;;12.03;34.14
7802;BME280;3945;48.952;9.506;2023-04-04T11:15:09;98653.34;;;11.73;34.23
7802;BME280;3945;48.952;9.506;2023-04-04T11:17:41;98650.69;;;11.73;34.83
7802;BME280;3945;48.952;9.506;2023-04-04T11:20:07;98652.16;;;11.69;33.41
7802;BME280;3945;48.952;9.506;2023-04-04T11:22:34;98651.81;;;11.65;34.47
7802;BME280;3945;48.952;9.506;2023-04-04T11:27:45;98638.78;;;11.87;34.04
7802;BME280;3945;48.952;9.506;2023-04-04T11:30:12;98655.34;;;11.78;34.00
7802;BME280;3945;48.952;9.506;2023-04-04T11:32:42;98650.81;;;11.90;32.78
7802;BME280;3945;48.952;9.506;2023-04-04T11:35:08;98658.63;;;12.03;34.43
7802;BME280;3945;48.952;9.506;2023-04-04T11:37:41;98658.22;;;11.76;32.92
7802;BME280;3945;48.952;9.506;2023-04-04T11:40:08;98654.41;;;11.84;34.18
7802;BME280;3945;48.952;9.506;2023-04-04T11:42:36;98656.03;;;11.85;34.66
7802;BME280;3945;48.952;9.506;2023-04-04T11:45:05;98645.50;;;11.90;34.14
7802;BME280;3945;48.952;9.506;2023-04-04T11:47:33;98652.56;;;11.96;34.45
7802;BME280;3945;48.952;9.506;2023-04-04T11:50:00;98642.47;;;11.98;34.14
7802;BME280;3945;48.952;9.506;2023-04-04T11:52:32;98649.88;;;11.96;33.67
7802;BME280;3945;48.952;9.506;2023-04-04T11:54:59;98639.72;;;12.16;33.80
7802;BME280;3945;48.952;9.506;2023-04-04T11:57:25;98630.47;;;12.47;33.66
7802;BME280;3945;48.952;9.506;2023-04-04T11:59:52;98638.06;;;12.38;32.16
7802;BME280;3945;48.952;9.506;2023-04-04T12:02:20;98626.31;;;12.51;33.63
7802;BME280;3945;48.952;9.506;2023-04-04T12:04:50;98621.78;;;12.51;33.27
7802;BME280;3945;48.952;9.506;2023-04-04T12:07:16;98628.47;;;12.66;33.35
7802;BME280;3945;48.952;9.506;2023-04-04T12:09:42;98627.63;;;12.77;31.84
7802;BME280;3945;48.952;9.506;2023-04-04T12:12:11;98628.72;;;12.64;33.66
7802;BME280;3945;48.952;9.506;2023-04-04T12:14:38;98619.59;;;12.77;34.91
7802;BME280;3945;48.952;9.506;2023-04-04T12:17:05;98625.44;;;12.74;34.27
7802;BME280;3945;48.952;9.506;2023-04-04T12:19:34;98619.22;;;12.97;33.88
7802;BME280;3945;48.952;9.506;2023-04-04T12:22:01;98617.19;;;13.04;32.70
7802;BME280;3945;48.952;9.506;2023-04-04T12:24:27;98616.94;;;13.05;32.72
7802;BME280;3945;48.952;9.506;2023-04-04T12:26:54;98612.03;;;12.85;32.21
7802;BME280;3945;48.952;9.506;2023-04-04T12:29:23;98613.44;;;13.05;32.50
7802;BME280;3945;48.952;9.506;2023-04-04T12:31:51;98607.44;;;13.26;32.45
7802;BME280;3945;48.952;9.506;2023-04-04T12:34:20;98613.31;;;13.40;32.95
7802;BME280;3945;48.952;9.506;2023-04-04T12:36:49;98596.09;;;13.19;31.67
7802;BME280;3945;48.952;9.506;2023-04-04T12:39:16;98601.78;;;13.22;33.31
7802;BME280;3945;48.952;9.506;2023-04-04T12:41:46;98591.03;;;13.17;31.83
7802;BME280;3945;48.952;9.506;2023-04-04T12:44:23;98611.13;;;13.53;34.10
7802;BME280;3945;48.952;9.506;2023-04-04T12:46:50;98599.53;;;13.64;32.03
7802;BME280;3945;48.952;9.506;2023-04-04T12:49:19;98598.78;;;13.69;32.64
7802;BME280;3945;48.952;9.506;2023-04-04T12:51:46;98591.28;;;13.83;31.33
7802;BME280;3945;48.952;9.506;2023-04-04T12:54:24;98605.78;;;13.70;32.22
7802;BME280;3945;48.952;9.506;2023-04-04T12:56:53;98594.28;;;13.53;31.02
7802;BME280;3945;48.952;9.506;2023-04-04T12:59:20;98597.03;;;13.58;30.75
7802;BME280;3945;48.952;9.506;2023-04-04T13:01:47;98590.38;;;13.44;31.10
7802;BME280;3945;48.952;9.506;2023-04-04T13:04:13;98588.59;;;13.33;31.35
7802;BME280;3945;48.952;9.506;2023-04-04T13:06:43;98576.34;;;13.20;32.96
7802;BME280;3945;48.952;9.506;2023-04-04T13:09:14;98570.50;;;12.78;33.14
7802;BME280;3945;48.952;9.506;2023-04-04T13:11:55;98570.88;;;12.70;32.49
7802;BME280;3945;48.952;9.506;2023-04-04T13:14:23;98567.19;;;12.87;33.60
7802;BME280;3945;48.952;9.506;2023-04-04T13:17:00;98574.56;;;12.97;33.52
7802;BME280;3945;48.952;9.506;2023-04-04T13:19:27;98568.44;;;13.25;33.38
7802;BME280;3945;48.952;9.506;2023-04-04T13:21:53;98570.03;;;13.26;32.86
7802;BME280;3945;48.952;9.506;2023-04-04T13:24:19;98565.34;;;13.33;32.28
7802;BME280;3945;48.952;9.506;2023-04-04T13:26:45;98567.28;;;13.38;30.81
7802;BME280;3945;48.952;9.506;2023-04-04T13:29:13;98568.34;;;13.37;31.03